sensor_id;sensor_type;location;lat;lon;timestamp;P1;durP1;ratioP1;P2;durP2;ratioP2
55364;SDS011;41245;45.384;20.390;2022-12-18T00:01:24;58.90;;;26.83;;
55364;SDS011;41245;45.384;20.390;2022-12-18T00:03:51;63.55;;;26.08;;
55364;SDS011;41245;45.384;20.390;2022-12-18T00:06:18;59.47;;;26.80;;
55364;SDS011;41245;45.384;20.390;2022-12-18T00:08:44;62.05;;;27.05;;
55364;SDS011;41245;45.384;20.390;2022-12-18T00:11:11;66.90;;;29.05;;
55364;SDS011;41245;45.384;20.390;2022-12-18T00:13:38;59.13;;;27.60;;
55364;SDS011;41245;45.384;20.390;2022-12-18T00:16:05;68.63;;;27.70;;
55364;SDS011;41245;45.384;20.390;2022-12-18T00:18:31;62.58;;;26.17;;
55364;SDS011;41245;45.384;20.390;2022-12-18T00:21:01;70.32;;;27.85;;
55364;SDS011;41245;45.384;20.390;2022-12-18T00:23:28;61.58;;;26.40;;
55364;SDS011;41245;45.384;20.390;2022-12-18T00:25:58;57.50;;;23.58;;
55364;SDS011;41245;45.384;20.390;2022-12-18T00:28:24;54.17;;;26.30;;
55364;SDS011;41245;45.384;20.390;2022-12-18T00:30:50;58.35;;;25.17;;
55364;SDS011;41245;45.384;20.390;2022-12-18T00:33:17;62.25;;;27.42;;
55364;SDS011;41245;45.384;20.390;2022-12-18T00:35:43;54.75;;;24.75;;
55364;SDS011;41245;45.384;20.390;2022-12-18T00:38:09;66.15;;;26.48;;
55364;SDS011;41245;45.384;20.390;2022-12-18T00:40:35;54.80;;;24.63;;
55364;SDS011;41245;45.384;20.390;2022-12-18T00:43:01;60.20;;;25.88;;
55364;SDS011;41245;45.384;20.390;2022-12-18T00:45:28;51.30;;;21.98;;
55364;SDS011;41245;45.384;20.390;2022-12-18T00:47:54;58.42;;;25.05;;
55364;SDS011;41245;45.384;20.390;2022-12-18T00:50:21;58.33;;;26.13;;
55364;SDS011;41245;45.384;20.390;2022-12-18T00:52:48;56.40;;;26.42;;
55364;SDS011;41245;45.384;20.390;2022-12-18T00:55:14;60.75;;;24.92;;
55364;SDS011;41245;45.384;20.390;2022-12-18T00:57:40;51.80;;;23.67;;
55364;SDS011;41245;45.384;20.390;2022-12-18T01:00:07;53.72;;;23.33;;
55364;SDS011;41245;45.384;20.390;2022-12-18T01:02:33;56.28;;;24.23;;
55364;SDS011;41245;45.384;20.390;2022-12-18T01:05:00;60.65;;;25.50;;
55364;SDS011;41245;45.384;20.390;2022-12-18T01:07:26;60.38;;;26.25;;
55364;SDS011;41245;45.384;20.390;2022-12-18T01:09:53;59.88;;;26.40;;
55364;SDS011;41245;45.384;20.390;2022-12-18T01:12:19;58.90;;;25.80;;
55364;SDS011;41245;45.384;20.390;2022-12-18T01:14:45;61.53;;;26.70;;
55364;SDS011;41245;45.384;20.390;2022-12-18T01:17:11;60.60;;;27.48;;
55364;SDS011;41245;45.384;20.390;2022-12-18T01:19:37;57.40;;;24.98;;
55364;SDS011;41245;45.384;20.390;2022-12-18T01:22:03;57.47;;;24.17;;
55364;SDS011;41245;45.384;20.390;2022-12-18T01:24:29;59.13;;;25.85;;
55364;SDS011;41245;45.384;20.390;2022-12-18T01:26:55;66.22;;;26.20;;
55364;SDS011;41245;45.384;20.390;2022-12-18T01:29:22;62.28;;;25.60;;
55364;SDS011;41245;45.384;20.390;2022-12-18T01:31:48;57.38;;;25.92;;
55364;SDS011;41245;45.384;20.390;2022-12-18T01:34:14;60.65;;;25.77;;
55364;SDS011;41245;45.384;20.390;2022-12-18T01:36:40;60.90;;;25.23;;
55364;SDS011;41245;45.384;20.390;2022-12-18T01:39:09;55.03;;;24.77;;
55364;SDS011;41245;45.384;20.390;2022-12-18T01:41:35;63.38;;;24.58;;
55364;SDS011;41245;45.384;20.390;2022-12-18T01:47:05;53.72;;;24.10;;
55364;SDS011;41245;45.384;20.390;2022-12-18T01:49:31;56.92;;;24.45;;
55364;SDS011;41245;45.384;20.390;2022-12-18T01:51:57;63.17;;;26.52;;
55364;SDS011;41245;45.384;20.390;2022-12-18T01:54:23;55.15;;;25.05;;
55364;SDS011;41245;45.384;20.390;2022-12-18T01:56:49;57.05;;;25.70;;
55364;SDS011;41245;45.384;20.390;2022-12-18T01:59:15;59.92;;;24.67;;
55364;SDS011;41245;45.384;20.390;2022-12-18T02:01:41;57.63;;;24.27;;
55364;SDS011;41245;45.384;20.390;2022-12-18T02:04:24;63.20;;;26.25;;
55364;SDS011;41245;45.384;20.390;2022-12-18T02:06:51;60.53;;;24.67;;
55364;SDS011;41245;45.384;20.390;2022-12-18T02:09:23;54.85;;;24.90;;
55364;SDS011;41245;45.384;20.390;2022-12-18T02:12:05;61.33;;;25.13;;
55364;SDS011;41245;45.384;20.390;2022-12-18T02:14:38;53.35;;;24.30;;
55364;SDS011;41245;45.384;20.390;2022-12-18T02:17:15;64.07;;;25.25;;
55364;SDS011;41245;45.384;20.390;2022-12-18T02:25:21;57.75;;;25.35;;
55364;SDS011;41245;45.384;20.390;2022-12-18T02:27:51;60.88;;;24.80;;
55364;SDS011;41245;45.384;20.390;2022-12-18T02:30:18;64.88;;;28.23;;
55364;SDS011;41245;45.384;20.390;2022-12-18T02:32:49;63.20;;;25.20;;
55364;SDS011;41245;45.384;20.390;2022-12-18T02:35:17;53.35;;;25.15;;
55364;SDS011;41245;45.384;20.390;2022-12-18T02:37:45;58.28;;;25.83;;
55364;SDS011;41245;45.384;20.390;2022-12-18T02:40:12;59.65;;;26.98;;
55364;SDS011;41245;45.384;20.390;2022-12-18T02:42:39;59.13;;;25.95;;
55364;SDS011;41245;45.384;20.390;2022-12-18T02:45:05;60.47;;;26.00;;
55364;SDS011;41245;45.384;20.390;2022-12-18T02:47:32;59.75;;;26.52;;
55364;SDS011;41245;45.384;20.390;2022-12-18T02:52:36;59.75;;;26.70;;
55364;SDS011;41245;45.384;20.390;2022-12-18T02:57:42;60.17;;;25.13;;
55364;SDS011;41245;45.384;20.390;2022-12-18T03:00:20;60.47;;;25.92;;
55364;SDS011;41245;45.384;20.390;2022-12-18T03:02:48;55.28;;;24.98;;
55364;SDS011;41245;45.384;20.390;2022-12-18T03:05:19;60.25;;;26.42;;
55364;SDS011;41245;45.384;20.390;2022-12-18T03:10:32;65.22;;;27.17;;
55364;SDS011;41245;45.384;20.390;2022-12-18T03:13:07;62.58;;;24.13;;
55364;SDS011;41245;45.384;20.390;2022-12-18T03:15:38;56.13;;;25.83;;
55364;SDS011;41245;45.384;20.390;2022-12-18T03:18:25;62.17;;;26.70;;
55364;SDS011;41245;45.384;20.390;2022-12-18T03:20:58;65.68;;;26.95;;
55364;SDS011;41245;45.384;20.390;2022-12-18T03:23:27;65.53;;;26.58;;
55364;SDS011;41245;45.384;20.390;2022-12-18T03:25:58;55.42;;;26.80;;
55364;SDS011;41245;45.384;20.390;2022-12-18T03:28:29;63.97;;;27.50;;
55364;SDS011;41245;45.384;20.390;2022-12-18T03:30:58;68.65;;;28.33;;
55364;SDS011;41245;45.384;20.390;2022-12-18T03:33:27;65.65;;;28.25;;
55364;SDS011;41245;45.384;20.390;2022-12-18T03:35:57;63.10;;;25.70;;
55364;SDS011;41245;45.384;20.390;2022-12-18T03:38:23;58.58;;;25.65;;
55364;SDS011;41245;45.384;20.390;2022-12-18T03:43:35;59.58;;;26.95;;
55364;SDS011;41245;45.384;20.390;2022-12-18T03:51:48;61.60;;;26.30;;
55364;SDS011;41245;45.384;20.390;2022-12-18T03:54:19;55.47;;;25.30;;
55364;SDS011;41245;45.384;20.390;2022-12-18T03:56:51;64.75;;;26.05;;
55364;SDS011;41245;45.384;20.390;2022-12-18T03:59:23;69.80;;;28.10;;
55364;SDS011;41245;45.384;20.390;2022-12-18T04:01:51;71.65;;;27.60;;
55364;SDS011;41245;45.384;20.390;2022-12-18T04:04:19;60.35;;;26.48;;
55364;SDS011;41245;45.384;20.390;2022-12-18T04:06:46;63.88;;;26.75;;
55364;SDS011;41245;45.384;20.390;2022-12-18T04:09:14;57.72;;;25.50;;
55364;SDS011;41245;45.384;20.390;2022-12-18T04:11:40;60.38;;;26.83;;
55364;SDS011;41245;45.384;20.390;2022-12-18T04:14:08;58.55;;;24.10;;
55364;SDS011;41245;45.384;20.390;2022-12-18T04:16:35;59.38;;;26.70;;
55364;SDS011;41245;45.384;20.390;2022-12-18T04:19:00;61.40;;;25.38;;
55364;SDS011;41245;45.384;20.390;2022-12-18T04:21:26;56.50;;;25.85;;
55364;SDS011;41245;45.384;20.390;2022-12-18T04:23:52;64.18;;;26.45;;
55364;SDS011;41245;45.384;20.390;2022-12-18T04:26:18;63.92;;;26.20;;
55364;SDS011;41245;45.384;20.390;2022-12-18T04:28:43;61.67;;;27.33;;
55364;SDS011;41245;45.384;20.390;2022-12-18T04:31:09;67.38;;;26.88;;
55364;SDS011;41245;45.384;20.390;2022-12-18T04:33:35;72.63;;;29.33;;
55364;SDS011;41245;45.384;20.390;2022-12-18T04:36:00;64.47;;;28.00;;
55364;SDS011;41245;45.384;20.390;2022-12-18T04:38:26;68.55;;;28.48;;
55364;SDS011;41245;45.384;20.390;2022-12-18T04:40:52;63.78;;;26.70;;
55364;SDS011;41245;45.384;20.390;2022-12-18T04:43:17;66.85;;;28.88;;
55364;SDS011;41245;45.384;20.390;2022-12-18T04:45:43;61.30;;;27.52;;
55364;SDS011;41245;45.384;20.390;2022-12-18T04:48:09;68.90;;;29.33;;
55364;SDS011;41245;45.384;20.390;2022-12-18T04:50:35;68.10;;;28.90;;
55364;SDS011;41245;45.384;20.390;2022-12-18T04:53:00;70.55;;;26.67;;
55364;SDS011;41245;45.384;20.390;2022-12-18T04:55:27;60.90;;;27.13;;
55364;SDS011;41245;45.384;20.390;2022-12-18T04:57:52;68.03;;;27.27;;
55364;SDS011;41245;45.384;20.390;2022-12-18T05:00:18;65.97;;;28.55;;
55364;SDS011;41245;45.384;20.390;2022-12-18T05:02:44;68.35;;;28.45;;
55364;SDS011;41245;45.384;20.390;2022-12-18T05:05:10;64.57;;;26.15;;
55364;SDS011;41245;45.384;20.390;2022-12-18T05:07:35;68.93;;;25.77;;
55364;SDS011;41245;45.384;20.390;2022-12-18T05:10:01;68.88;;;28.52;;
55364;SDS011;41245;45.384;20.390;2022-12-18T05:12:28;64.05;;;25.67;;
55364;SDS011;41245;45.384;20.390;2022-12-18T05:14:53;60.60;;;26.63;;
55364;SDS011;41245;45.384;20.390;2022-12-18T05:17:19;70.55;;;27.30;;
55364;SDS011;41245;45.384;20.390;2022-12-18T05:19:45;69.85;;;27.83;;
55364;SDS011;41245;45.384;20.390;2022-12-18T05:22:11;69.30;;;29.25;;
55364;SDS011;41245;45.384;20.390;2022-12-18T05:24:37;69.65;;;28.23;;
55364;SDS011;41245;45.384;20.390;2022-12-18T05:27:02;69.30;;;29.42;;
55364;SDS011;41245;45.384;20.390;2022-12-18T05:29:28;65.70;;;27.52;;
55364;SDS011;41245;45.384;20.390;2022-12-18T05:31:54;74.03;;;28.05;;
55364;SDS011;41245;45.384;20.390;2022-12-18T05:34:19;66.15;;;26.95;;
55364;SDS011;41245;45.384;20.390;2022-12-18T05:36:45;70.50;;;28.88;;
55364;SDS011;41245;45.384;20.390;2022-12-18T05:39:11;69.80;;;30.15;;
55364;SDS011;41245;45.384;20.390;2022-12-18T05:41:36;85.72;;;36.55;;
55364;SDS011;41245;45.384;20.390;2022-12-18T05:44:02;68.68;;;28.75;;
55364;SDS011;41245;45.384;20.390;2022-12-18T05:46:28;73.82;;;29.83;;
55364;SDS011;41245;45.384;20.390;2022-12-18T05:48:54;83.47;;;31.75;;
55364;SDS011;41245;45.384;20.390;2022-12-18T05:51:21;73.85;;;29.75;;
55364;SDS011;41245;45.384;20.390;2022-12-18T05:53:48;65.72;;;27.00;;
55364;SDS011;41245;45.384;20.390;2022-12-18T05:56:14;71.07;;;30.10;;
55364;SDS011;41245;45.384;20.390;2022-12-18T05:58:43;73.55;;;29.20;;
55364;SDS011;41245;45.384;20.390;2022-12-18T06:01:10;70.38;;;29.75;;
55364;SDS011;41245;45.384;20.390;2022-12-18T06:03:38;72.82;;;30.55;;
55364;SDS011;41245;45.384;20.390;2022-12-18T06:06:12;75.32;;;31.33;;
55364;SDS011;41245;45.384;20.390;2022-12-18T06:08:41;84.30;;;33.17;;
55364;SDS011;41245;45.384;20.390;2022-12-18T06:11:07;81.40;;;35.05;;
55364;SDS011;41245;45.384;20.390;2022-12-18T06:13:33;87.78;;;35.35;;
55364;SDS011;41245;45.384;20.390;2022-12-18T06:16:01;79.75;;;33.92;;
55364;SDS011;41245;45.384;20.390;2022-12-18T06:18:28;81.13;;;34.08;;
55364;SDS011;41245;45.384;20.390;2022-12-18T06:20:57;80.40;;;33.70;;
55364;SDS011;41245;45.384;20.390;2022-12-18T06:23:23;81.90;;;34.38;;
55364;SDS011;41245;45.384;20.390;2022-12-18T06:25:49;83.65;;;34.20;;
55364;SDS011;41245;45.384;20.390;2022-12-18T06:28:15;85.38;;;35.42;;
55364;SDS011;41245;45.384;20.390;2022-12-18T06:30:45;84.63;;;33.63;;
55364;SDS011;41245;45.384;20.390;2022-12-18T06:33:13;75.18;;;31.30;;
55364;SDS011;41245;45.384;20.390;2022-12-18T06:35:39;68.32;;;31.08;;
55364;SDS011;41245;45.384;20.390;2022-12-18T06:38:05;82.80;;;33.80;;
55364;SDS011;41245;45.384;20.390;2022-12-18T06:40:31;89.15;;;35.97;;
55364;SDS011;41245;45.384;20.390;2022-12-18T06:42:57;74.53;;;34.20;;
55364;SDS011;41245;45.384;20.390;2022-12-18T06:45:23;72.07;;;32.47;;
55364;SDS011;41245;45.384;20.390;2022-12-18T06:47:49;83.10;;;38.60;;
55364;SDS011;41245;45.384;20.390;2022-12-18T06:50:15;90.18;;;37.95;;
55364;SDS011;41245;45.384;20.390;2022-12-18T06:52:41;81.55;;;34.95;;
55364;SDS011;41245;45.384;20.390;2022-12-18T06:55:09;82.60;;;35.58;;
55364;SDS011;41245;45.384;20.390;2022-12-18T06:57:35;82.45;;;36.28;;
55364;SDS011;41245;45.384;20.390;2022-12-18T07:00:01;83.90;;;36.72;;
55364;SDS011;41245;45.384;20.390;2022-12-18T07:02:28;82.93;;;36.03;;
55364;SDS011;41245;45.384;20.390;2022-12-18T07:04:53;74.50;;;35.22;;
55364;SDS011;41245;45.384;20.390;2022-12-18T07:07:19;81.13;;;34.83;;
55364;SDS011;41245;45.384;20.390;2022-12-18T07:09:45;88.28;;;37.20;;
55364;SDS011;41245;45.384;20.390;2022-12-18T07:12:10;98.78;;;39.80;;
55364;SDS011;41245;45.384;20.390;2022-12-18T07:14:36;92.95;;;38.97;;
55364;SDS011;41245;45.384;20.390;2022-12-18T07:17:02;91.18;;;37.75;;
55364;SDS011;41245;45.384;20.390;2022-12-18T07:19:27;84.93;;;37.10;;
55364;SDS011;41245;45.384;20.390;2022-12-18T07:21:54;102.13;;;44.53;;
55364;SDS011;41245;45.384;20.390;2022-12-18T07:24:19;81.50;;;38.65;;
55364;SDS011;41245;45.384;20.390;2022-12-18T07:26:45;101.78;;;43.75;;
55364;SDS011;41245;45.384;20.390;2022-12-18T07:29:11;93.32;;;42.72;;
55364;SDS011;41245;45.384;20.390;2022-12-18T07:31:37;86.45;;;37.65;;
55364;SDS011;41245;45.384;20.390;2022-12-18T07:34:03;106.35;;;48.35;;
55364;SDS011;41245;45.384;20.390;2022-12-18T07:36:28;88.05;;;41.97;;
55364;SDS011;41245;45.384;20.390;2022-12-18T07:38:54;91.07;;;43.95;;
55364;SDS011;41245;45.384;20.390;2022-12-18T07:41:21;88.38;;;39.92;;
55364;SDS011;41245;45.384;20.390;2022-12-18T07:43:46;79.95;;;37.10;;
55364;SDS011;41245;45.384;20.390;2022-12-18T07:46:13;99.72;;;43.33;;
55364;SDS011;41245;45.384;20.390;2022-12-18T07:48:40;82.18;;;35.60;;
55364;SDS011;41245;45.384;20.390;2022-12-18T07:51:06;84.05;;;37.67;;
55364;SDS011;41245;45.384;20.390;2022-12-18T07:53:33;91.10;;;39.75;;
55364;SDS011;41245;45.384;20.390;2022-12-18T07:56:01;91.68;;;40.20;;
55364;SDS011;41245;45.384;20.390;2022-12-18T07:58:29;84.32;;;36.42;;
55364;SDS011;41245;45.384;20.390;2022-12-18T08:01:01;79.03;;;33.15;;
55364;SDS011;41245;45.384;20.390;2022-12-18T08:03:37;71.43;;;33.72;;
55364;SDS011;41245;45.384;20.390;2022-12-18T08:06:04;85.75;;;35.38;;
55364;SDS011;41245;45.384;20.390;2022-12-18T08:08:31;85.88;;;37.10;;
55364;SDS011;41245;45.384;20.390;2022-12-18T08:10:57;83.57;;;38.33;;
55364;SDS011;41245;45.384;20.390;2022-12-18T08:13:23;81.95;;;37.45;;
55364;SDS011;41245;45.384;20.390;2022-12-18T08:16:03;85.25;;;35.60;;
55364;SDS011;41245;45.384;20.390;2022-12-18T08:18:31;100.30;;;41.72;;
55364;SDS011;41245;45.384;20.390;2022-12-18T08:21:02;87.10;;;38.95;;
55364;SDS011;41245;45.384;20.390;2022-12-18T08:23:34;78.93;;;33.53;;
55364;SDS011;41245;45.384;20.390;2022-12-18T08:26:00;76.03;;;33.78;;
55364;SDS011;41245;45.384;20.390;2022-12-18T08:28:25;90.60;;;38.35;;
55364;SDS011;41245;45.384;20.390;2022-12-18T08:30:51;86.38;;;36.22;;
55364;SDS011;41245;45.384;20.390;2022-12-18T08:33:17;77.25;;;33.40;;
55364;SDS011;41245;45.384;20.390;2022-12-18T08:35:43;91.53;;;39.30;;
55364;SDS011;41245;45.384;20.390;2022-12-18T08:38:09;86.80;;;35.35;;
55364;SDS011;41245;45.384;20.390;2022-12-18T08:40:34;83.55;;;37.85;;
55364;SDS011;41245;45.384;20.390;2022-12-18T08:43:00;81.70;;;36.63;;
55364;SDS011;41245;45.384;20.390;2022-12-18T08:45:44;81.03;;;34.75;;
55364;SDS011;41245;45.384;20.390;2022-12-18T08:48:10;91.10;;;37.13;;
55364;SDS011;41245;45.384;20.390;2022-12-18T08:50:36;92.78;;;38.67;;
55364;SDS011;41245;45.384;20.390;2022-12-18T08:53:02;90.30;;;38.50;;
55364;SDS011;41245;45.384;20.390;2022-12-18T08:55:28;94.30;;;39.28;;
55364;SDS011;41245;45.384;20.390;2022-12-18T08:57:53;95.28;;;37.58;;
55364;SDS011;41245;45.384;20.390;2022-12-18T09:00:19;83.93;;;35.03;;
55364;SDS011;41245;45.384;20.390;2022-12-18T09:02:45;85.63;;;38.97;;
55364;SDS011;41245;45.384;20.390;2022-12-18T09:05:11;97.10;;;42.88;;
55364;SDS011;41245;45.384;20.390;2022-12-18T09:07:36;84.97;;;35.55;;
55364;SDS011;41245;45.384;20.390;2022-12-18T09:10:02;83.38;;;35.22;;
55364;SDS011;41245;45.384;20.390;2022-12-18T09:12:28;88.07;;;36.30;;
55364;SDS011;41245;45.384;20.390;2022-12-18T09:14:54;130.63;;;57.97;;
55364;SDS011;41245;45.384;20.390;2022-12-18T09:17:21;158.65;;;76.07;;
55364;SDS011;41245;45.384;20.390;2022-12-18T09:19:47;167.95;;;85.68;;
55364;SDS011;41245;45.384;20.390;2022-12-18T09:22:13;107.78;;;47.72;;
55364;SDS011;41245;45.384;20.390;2022-12-18T09:24:38;97.10;;;42.90;;
55364;SDS011;41245;45.384;20.390;2022-12-18T09:27:04;88.45;;;38.92;;
55364;SDS011;41245;45.384;20.390;2022-12-18T09:29:30;90.82;;;37.50;;
55364;SDS011;41245;45.384;20.390;2022-12-18T09:31:55;93.85;;;41.50;;
55364;SDS011;41245;45.384;20.390;2022-12-18T09:34:21;97.50;;;41.45;;
55364;SDS011;41245;45.384;20.390;2022-12-18T09:36:47;136.23;;;62.88;;
55364;SDS011;41245;45.384;20.390;2022-12-18T09:39:13;172.82;;;81.93;;
55364;SDS011;41245;45.384;20.390;2022-12-18T09:41:40;110.55;;;47.65;;
55364;SDS011;41245;45.384;20.390;2022-12-18T09:44:17;102.22;;;42.15;;
55364;SDS011;41245;45.384;20.390;2022-12-18T09:49:20;72.53;;;32.50;;
55364;SDS011;41245;45.384;20.390;2022-12-18T09:54:24;87.93;;;35.35;;
55364;SDS011;41245;45.384;20.390;2022-12-18T09:56:55;76.93;;;32.00;;
55364;SDS011;41245;45.384;20.390;2022-12-18T09:59:25;88.05;;;34.67;;
55364;SDS011;41245;45.384;20.390;2022-12-18T10:01:57;93.53;;;39.88;;
55364;SDS011;41245;45.384;20.390;2022-12-18T10:04:23;99.55;;;41.10;;
55364;SDS011;41245;45.384;20.390;2022-12-18T10:06:54;98.40;;;42.80;;
55364;SDS011;41245;45.384;20.390;2022-12-18T10:12:27;96.85;;;40.30;;
55364;SDS011;41245;45.384;20.390;2022-12-18T10:15:04;87.43;;;38.78;;
55364;SDS011;41245;45.384;20.390;2022-12-18T10:18:26;87.32;;;38.35;;
55364;SDS011;41245;45.384;20.390;2022-12-18T10:20:49;102.50;;;43.80;;
55364;SDS011;41245;45.384;20.390;2022-12-18T10:26:12;116.07;;;45.35;;
55364;SDS011;41245;45.384;20.390;2022-12-18T10:28:38;105.72;;;45.05;;
55364;SDS011;41245;45.384;20.390;2022-12-18T10:31:16;88.00;;;36.00;;
55364;SDS011;41245;45.384;20.390;2022-12-18T10:33:43;94.78;;;41.13;;
55364;SDS011;41245;45.384;20.390;2022-12-18T10:36:09;91.53;;;40.47;;
55364;SDS011;41245;45.384;20.390;2022-12-18T10:38:35;90.70;;;38.35;;
55364;SDS011;41245;45.384;20.390;2022-12-18T10:41:02;93.03;;;40.30;;
55364;SDS011;41245;45.384;20.390;2022-12-18T10:43:35;94.70;;;38.30;;
55364;SDS011;41245;45.384;20.390;2022-12-18T10:48:34;89.20;;;37.20;;
55364;SDS011;41245;45.384;20.390;2022-12-18T10:51:22;80.65;;;36.33;;
55364;SDS011;41245;45.384;20.390;2022-12-18T10:53:55;82.32;;;36.17;;
55364;SDS011;41245;45.384;20.390;2022-12-18T10:56:26;84.20;;;36.15;;
55364;SDS011;41245;45.384;20.390;2022-12-18T10:59:03;90.28;;;38.53;;
55364;SDS011;41245;45.384;20.390;2022-12-18T11:04:16;79.20;;;34.08;;
55364;SDS011;41245;45.384;20.390;2022-12-18T11:06:59;84.75;;;36.50;;
55364;SDS011;41245;45.384;20.390;2022-12-18T11:09:35;90.30;;;38.60;;
55364;SDS011;41245;45.384;20.390;2022-12-18T11:12:21;87.00;;;37.95;;
55364;SDS011;41245;45.384;20.390;2022-12-18T11:14:52;84.32;;;37.25;;
55364;SDS011;41245;45.384;20.390;2022-12-18T11:17:19;98.13;;;42.17;;
55364;SDS011;41245;45.384;20.390;2022-12-18T11:20:00;87.22;;;33.35;;
55364;SDS011;41245;45.384;20.390;2022-12-18T11:22:35;91.15;;;39.05;;
55364;SDS011;41245;45.384;20.390;2022-12-18T11:27:47;86.32;;;37.35;;
55364;SDS011;41245;45.384;20.390;2022-12-18T11:30:26;80.90;;;34.22;;
55364;SDS011;41245;45.384;20.390;2022-12-18T11:32:56;90.65;;;39.10;;
55364;SDS011;41245;45.384;20.390;2022-12-18T11:37:58;116.57;;;48.45;;
55364;SDS011;41245;45.384;20.390;2022-12-18T11:40:45;95.65;;;39.47;;
55364;SDS011;41245;45.384;20.390;2022-12-18T11:43:17;86.72;;;35.08;;
55364;SDS011;41245;45.384;20.390;2022-12-18T11:45:54;123.55;;;53.67;;
55364;SDS011;41245;45.384;20.390;2022-12-18T11:48:51;310.52;;;137.00;;
55364;SDS011;41245;45.384;20.390;2022-12-18T11:51:33;110.80;;;49.67;;
55364;SDS011;41245;45.384;20.390;2022-12-18T11:54:13;219.48;;;98.75;;
55364;SDS011;41245;45.384;20.390;2022-12-18T11:56:43;108.03;;;45.88;;
55364;SDS011;41245;45.384;20.390;2022-12-18T12:01:53;153.30;;;68.18;;
55364;SDS011;41245;45.384;20.390;2022-12-18T12:07:44;128.05;;;52.55;;
55364;SDS011;41245;45.384;20.390;2022-12-18T12:18:42;104.20;;;43.13;;
55364;SDS011;41245;45.384;20.390;2022-12-18T12:30:16;80.10;;;36.83;;
55364;SDS011;41245;45.384;20.390;2022-12-18T12:38:57;109.22;;;45.40;;
55364;SDS011;41245;45.384;20.390;2022-12-18T12:41:27;96.22;;;40.83;;
55364;SDS011;41245;45.384;20.390;2022-12-18T12:45:01;90.13;;;38.95;;
55364;SDS011;41245;45.384;20.390;2022-12-18T12:47:19;93.10;;;38.95;;
55364;SDS011;41245;45.384;20.390;2022-12-18T12:49:50;88.57;;;39.75;;
55364;SDS011;41245;45.384;20.390;2022-12-18T12:52:31;88.47;;;40.25;;
55364;SDS011;41245;45.384;20.390;2022-12-18T12:55:04;90.18;;;39.92;;
55364;SDS011;41245;45.384;20.390;2022-12-18T12:57:41;84.32;;;35.65;;
55364;SDS011;41245;45.384;20.390;2022-12-18T13:00:14;97.05;;;38.67;;
55364;SDS011;41245;45.384;20.390;2022-12-18T13:02:53;89.65;;;39.83;;
55364;SDS011;41245;45.384;20.390;2022-12-18T13:05:53;89.63;;;37.40;;
55364;SDS011;41245;45.384;20.390;2022-12-18T13:08:27;98.43;;;40.08;;
55364;SDS011;41245;45.384;20.390;2022-12-18T13:10:55;97.72;;;39.75;;
55364;SDS011;41245;45.384;20.390;2022-12-18T13:13:53;100.30;;;45.33;;
55364;SDS011;41245;45.384;20.390;2022-12-18T13:16:21;102.00;;;41.50;;
55364;SDS011;41245;45.384;20.390;2022-12-18T13:18:58;104.78;;;42.65;;
55364;SDS011;41245;45.384;20.390;2022-12-18T13:21:28;119.97;;;46.15;;
55364;SDS011;41245;45.384;20.390;2022-12-18T13:23:56;167.40;;;67.72;;
55364;SDS011;41245;45.384;20.390;2022-12-18T13:28:50;220.10;;;83.68;;
55364;SDS011;41245;45.384;20.390;2022-12-18T13:34:09;316.45;;;125.88;;
55364;SDS011;41245;45.384;20.390;2022-12-18T13:36:44;163.50;;;77.70;;
55364;SDS011;41245;45.384;20.390;2022-12-18T13:41:48;210.82;;;86.53;;
55364;SDS011;41245;45.384;20.390;2022-12-18T13:44:25;381.15;;;153.68;;
55364;SDS011;41245;45.384;20.390;2022-12-18T13:46:59;125.35;;;55.45;;
55364;SDS011;41245;45.384;20.390;2022-12-18T13:52:03;144.13;;;65.22;;
55364;SDS011;41245;45.384;20.390;2022-12-18T13:54:55;110.15;;;48.88;;
55364;SDS011;41245;45.384;20.390;2022-12-18T14:02:48;108.63;;;46.65;;
55364;SDS011;41245;45.384;20.390;2022-12-18T14:05:22;115.75;;;48.40;;
55364;SDS011;41245;45.384;20.390;2022-12-18T14:07:48;108.57;;;46.85;;
55364;SDS011;41245;45.384;20.390;2022-12-18T14:10:15;101.93;;;44.22;;
55364;SDS011;41245;45.384;20.390;2022-12-18T14:12:44;111.03;;;47.30;;
55364;SDS011;41245;45.384;20.390;2022-12-18T14:20:47;113.60;;;48.63;;
55364;SDS011;41245;45.384;20.390;2022-12-18T14:23:31;114.47;;;47.30;;
55364;SDS011;41245;45.384;20.390;2022-12-18T14:26:02;120.72;;;53.28;;
55364;SDS011;41245;45.384;20.390;2022-12-18T14:28:44;123.72;;;51.45;;
55364;SDS011;41245;45.384;20.390;2022-12-18T14:31:21;120.82;;;52.78;;
55364;SDS011;41245;45.384;20.390;2022-12-18T14:33:49;123.60;;;52.65;;
55364;SDS011;41245;45.384;20.390;2022-12-18T14:36:16;127.25;;;54.47;;
55364;SDS011;41245;45.384;20.390;2022-12-18T14:38:47;130.20;;;55.33;;
55364;SDS011;41245;45.384;20.390;2022-12-18T14:41:17;116.55;;;53.92;;
55364;SDS011;41245;45.384;20.390;2022-12-18T14:43:45;118.72;;;54.65;;
55364;SDS011;41245;45.384;20.390;2022-12-18T14:48:57;135.20;;;57.88;;
55364;SDS011;41245;45.384;20.390;2022-12-18T14:51:30;133.35;;;58.55;;
55364;SDS011;41245;45.384;20.390;2022-12-18T14:53:58;143.38;;;59.50;;
55364;SDS011;41245;45.384;20.390;2022-12-18T14:56:30;137.43;;;59.17;;
55364;SDS011;41245;45.384;20.390;2022-12-18T14:58:59;138.15;;;57.97;;
55364;SDS011;41245;45.384;20.390;2022-12-18T15:04:00;132.88;;;55.35;;
55364;SDS011;41245;45.384;20.390;2022-12-18T15:06:36;148.85;;;65.15;;
55364;SDS011;41245;45.384;20.390;2022-12-18T15:09:25;130.82;;;57.00;;
55364;SDS011;41245;45.384;20.390;2022-12-18T15:11:58;123.85;;;54.10;;
55364;SDS011;41245;45.384;20.390;2022-12-18T15:14:32;120.53;;;53.08;;
55364;SDS011;41245;45.384;20.390;2022-12-18T15:17:00;129.43;;;57.35;;
55364;SDS011;41245;45.384;20.390;2022-12-18T15:22:00;124.45;;;51.65;;
55364;SDS011;41245;45.384;20.390;2022-12-18T15:24:27;120.70;;;52.90;;
55364;SDS011;41245;45.384;20.390;2022-12-18T15:26:56;111.82;;;51.00;;
55364;SDS011;41245;45.384;20.390;2022-12-18T15:29:22;115.63;;;50.10;;
55364;SDS011;41245;45.384;20.390;2022-12-18T15:32:01;112.70;;;48.88;;
55364;SDS011;41245;45.384;20.390;2022-12-18T15:34:28;117.85;;;50.08;;
55364;SDS011;41245;45.384;20.390;2022-12-18T15:36:54;102.68;;;45.13;;
55364;SDS011;41245;45.384;20.390;2022-12-18T15:39:20;113.43;;;45.75;;
55364;SDS011;41245;45.384;20.390;2022-12-18T15:41:46;106.95;;;48.75;;
55364;SDS011;41245;45.384;20.390;2022-12-18T15:44:30;110.43;;;48.90;;
55364;SDS011;41245;45.384;20.390;2022-12-18T15:46:57;109.68;;;46.55;;
55364;SDS011;41245;45.384;20.390;2022-12-18T15:49:23;103.28;;;49.15;;
55364;SDS011;41245;45.384;20.390;2022-12-18T15:51:50;121.10;;;52.13;;
55364;SDS011;41245;45.384;20.390;2022-12-18T15:54:18;108.55;;;44.60;;
55364;SDS011;41245;45.384;20.390;2022-12-18T15:57:08;114.53;;;47.08;;
55364;SDS011;41245;45.384;20.390;2022-12-18T15:59:48;107.00;;;45.25;;
55364;SDS011;41245;45.384;20.390;2022-12-18T16:02:19;115.80;;;47.75;;
55364;SDS011;41245;45.384;20.390;2022-12-18T16:04:47;128.52;;;53.63;;